• Join FlightAware (Why Join?)
  • Login
  • US Flag 
12:43PM EDT


 

Airport Tracker/Info


-or-


 

Live Flight TrackerFlight Track Log ✈ N83413 ✈ 28-Apr-2013 ✈ KJVY - KCLT

Flight Track Log - Related Links

Times and Time Zones

All times are in EDT time to prevent confusion due to time zone crossing. See the N83413 flight status page for this flight to view local times or setup timezone preferences in your user account.

Time Position Orientation Groundspeed Altitude Reporting Facility
EDT Latitude Longitude Course Direction KTS MPH feet Rate Location/Type
07:07PM 38.3167 -85.6667 101° East 191 220 2,900  Level Louisville TRACON
07:08PM 38.2953 -85.6256 124° Southeast 191 220 4,400 1,680 Climbing Indianapolis Center
07:09PM 38.2625 -85.5700 127° Southeast 192 221 6,200 1,560 Climbing Indianapolis Center
07:10PM 38.2350 -85.5122 121° Southeast 192 221 7,700 1,380 Climbing Indianapolis Center
07:11PM 38.2047 -85.4536 123° Southeast 197 227 9,100 1,260 Climbing Indianapolis Center
07:12PM 38.0773 -85.3937 101° East  Level FlightAware Approximate
07:12PM 38.1728 -85.3769 118° Southeast 205 236 10,400  Level Indianapolis Center
07:13PM 38.1603 -85.3008 102° East 216 249 11,700 1,200 Climbing Indianapolis Center
07:14PM 38.1431 -85.2233 106° East 226 260 13,000 1,140 Climbing Indianapolis Center
07:15PM 38.1197 -85.1411 110° East 227 261 14,100 960 Climbing Indianapolis Center
07:16PM 38.1017 -85.0581 105° East 240 276 15,100 960 Climbing Indianapolis Center
07:17PM 38.0842 -84.9781 106° East 236 272 16,100 960 Climbing Indianapolis Center
07:18PM 38.0667 -84.8950 105° East 241 277 17,200 960 Climbing Indianapolis Center
07:19PM 38.0347 -84.8172 118° Southeast 250 288 18,100 900 Climbing Indianapolis Center
07:20PM 37.9928 -84.7492 128° Southeast 244 281 19,100 900 Climbing Indianapolis Center
07:21PM 37.9425 -84.6706 129° Southeast 247 284 20,000 720 Climbing Indianapolis Center
07:22PM 37.9008 -84.6011 127° Southeast 247 284 20,700 720 Climbing Indianapolis Center
07:23PM 37.8608 -84.5264 124° Southeast 255 293 21,500 660 Climbing Indianapolis Center
07:24PM 37.8222 -84.4528 124° Southeast 252 290 22,100 480 Climbing Indianapolis Center
07:25PM 37.7778 -84.3806 128° Southeast 258 297 22,600 420 Climbing Indianapolis Center
07:26PM 37.7314 -84.3075 129° Southeast 264 304 23,000 180 Climbing Indianapolis Center
07:27PM 37.6800 -84.2128 124° Southeast 280 322 23,000  Level Indianapolis Center
07:28PM 37.6311 -84.1286 126° Southeast 293 337 23,000  Level Indianapolis Center
07:29PM 37.5817 -84.0433 126° Southeast 300 345 23,000  Level Indianapolis Center
07:30PM 37.5319 -83.9564 126° Southeast 303 349 23,000  Level Indianapolis Center
07:31PM 37.4825 -83.8714 126° Southeast 302 348 23,000  Level Indianapolis Center
07:32PM 37.4317 -83.7856 127° Southeast 304 350 23,000  Level Indianapolis Center
07:33PM 37.3739 -83.6861 126° Southeast 302 348 23,000  Level Indianapolis Center
07:35PM 37.3225 -83.6000 127° Southeast 305 351 23,000  Level Indianapolis Center
07:36PM 37.2733 -83.5158 126° Southeast 300 345 23,000  Level Indianapolis Center
07:37PM 37.2233 -83.4314 127° Southeast 300 345 23,000  Level Indianapolis Center
07:38PM 37.1728 -83.3472 127° Southeast 301 346 23,000  Level Indianapolis Center
07:39PM 37.1219 -83.2608 126° Southeast 306 352 23,000  Level Indianapolis Center
07:40PM 37.0611 -83.1594 127° Southeast 310 357 23,000  Level Indianapolis Center
07:41PM 37.0103 -83.0750 127° Southeast 306 352 23,000  Level Indianapolis Center
07:42PM 36.9600 -82.9911 127° Southeast 302 348 23,000  Level Indianapolis Center
07:43PM 36.9136 -82.9147 127° Southeast 302 348 23,000  Level Indianapolis Center
07:44PM 36.8547 -82.8172 127° Southeast 300 345 23,000  Level Indianapolis Center
07:45PM 36.8067 -82.7372 127° Southeast 290 334 23,000  Level Indianapolis Center
07:46PM 36.7589 -82.6583 127° Southeast 286 329 23,000  Level Indianapolis Center
07:47PM 36.7108 -82.5808 128° Southeast 288 331 23,000  Level Atlanta Center
07:48PM 36.6661 -82.5067 127° Southeast 276 318 23,000 -480 Level Atlanta Center
07:49PM 36.6192 -82.4300 127° Southeast 271 312 22,100 -1,200 Descending Atlanta Center
07:50PM 36.5703 -82.3508 128° Southeast 283 326 20,600 -1,500 Descending Atlanta Center
07:51PM 36.5231 -82.2742 127° Southeast 283 326 19,100 -1,560 Descending Atlanta Center
07:52PM 36.4783 -82.2031 128° Southeast 268 308 17,500 -1,560 Descending Atlanta Center
07:53PM 36.4356 -82.1317 127° Southeast 268 308 16,000 -1,500 Descending Atlanta Center
07:54PM 36.3786 -82.0919 151° Southeast 244 281 14,500 -1,500 Descending Atlanta Center
07:55PM 36.3153 -82.0522 153° Southeast 244 281 13,100 -1,500 Descending Atlanta Center
07:56PM 36.2542 -82.0100 151° Southeast 244 281 11,600 -1,140 Descending Atlanta Center
07:57PM 36.1972 -81.9728 152° Southeast 244 281 10,900 -300 Descending Atlanta Center
07:58PM 36.1403 -81.9331 151° Southeast 244 281 11,000  Climbing Atlanta Center
07:59PM 36.0833 -81.8986 154° Southeast 239 275 11,000  Level Atlanta Center
08:00PM 36.0244 -81.8589 151° Southeast 239 275 11,100  Climbing Atlanta Center
08:01PM 35.9631 -81.8197 153° Southeast 245 282 11,100  Level Atlanta Center
08:02PM 35.9042 -81.7828 153° Southeast 245 282 11,100 -60 Level Atlanta Center
08:03PM 35.8450 -81.7458 153° Southeast 245 282 11,000  Descending Atlanta Center
08:03PM 35.8303 -81.7361 152° Southeast 238 274 11,100 60 Climbing Atlanta Center
08:04PM 35.7942 -81.7117 151° Southeast 245 282 11,100  Level Atlanta Center
08:04PM 35.7731 -81.6969 150° Southeast 237 273 11,100  Level Atlanta Center
08:05PM 35.7350 -81.6747 155° Southeast 245 282 11,100  Level Atlanta Center
08:05PM 35.7097 -81.6578 151° Southeast 236 272 11,100  Level Atlanta Center
08:06PM 35.6758 -81.6356 152° Southeast 245 282 11,100  Level Atlanta Center
08:06PM 35.6506 -81.6186 151° Southeast 238 274 11,100  Level Atlanta Center
08:07PM 35.6167 -81.5967 152° Southeast 245 282 11,100  Level Atlanta Center
08:07PM 35.5956 -81.5742 139° Southeast 245 282 11,100 -120 Level Atlanta Center
08:08PM 35.5697 -81.5342 128° Southeast 245 282 11,000 -420 Descending Atlanta Center
08:08PM 35.5544 -81.5064 124° Southeast 256 295 10,700 -1,140 Descending Atlanta Center
08:09PM 35.5244 -81.4642 131° Southeast 253 291 9,900 -1,440 Descending Atlanta Center
08:09PM 35.5050 -81.4342 129° Southeast 269 310 9,300 -900 Descending Atlanta Center
08:10PM 35.4769 -81.3942 131° Southeast 269 310 9,000 -240 Descending Atlanta Center
08:10PM 35.4575 -81.3617 126° Southeast 261 300 9,100 60 Climbing Atlanta Center
08:11PM 35.4317 -81.3242 130° Southeast 269 310 9,100  Level Atlanta Center
08:11PM 35.4122 -81.2917 126° Southeast 254 292 9,100  Level Atlanta Center
08:12PM 35.3883 -81.2569 130° Southeast 263 303 9,100  Level Atlanta Center
08:12PM 35.3708 -81.2192 120° Southeast 267 307 9,100  Level Atlanta Center
08:13PM 35.3356 -81.1364 118° Southeast 269 310 9,100  Level Atlanta Center
08:14PM 35.3022 -81.0561 117° Southeast 268 308 9,100  Level Atlanta Center
08:15PM 35.2472 -81.0250 155° Southeast 229 264 9,100 -480 Level Atlanta Center
08:16PM 35.1811 -81.0453 194° South 221 254 8,200 -1,200 Descending Atlanta Center
08:17PM 35.1228 -81.0550 188° South 227 261 6,700 -1,440 Descending Atlanta Center
08:18PM 35.0581 -81.0472 174° South 231 266 5,300 -840 Descending Atlanta Center
08:19PM 34.9953 -81.0444 178° South 226 260 5,000 -120 Descending Atlanta Center
08:20PM 34.9283 -81.0392 176° South 225 259 5,100  Climbing Atlanta Center
08:21PM 34.8656 -81.0314 174° South 227 261 5,100 -60 Level Atlanta Center
08:22PM 34.8639 -80.9656 92° East 230 265 5,000 -60 Descending Atlanta Center
08:23PM 34.9239 -80.9456 15° North 218 251 5,000  Level Atlanta Center
08:24PM 34.9783 -80.9486 357° North 180 207 5,000 -480 Level Atlanta Center
08:25PM 35.0306 -80.9544 355° North 190 219 4,100 -840 Descending Atlanta Center
08:27PM 35.0828 -80.9550 360° North 168 193 3,300 -1,020 Descending Atlanta Center
08:28PM 35.1308 -80.9608 354° North 175 201 2,000 -1,020 Descending Atlanta Center
08:29PM 35.1750 -80.9667 354° North 132 152 1,300 -720 Descending Atlanta Center
08:31PM 35.2000 -80.9333 39° Northeast  Level FlightAware Approximate